Time;durP1;ratioP1;P1;durP2;ratioP2;P2;SDS_P1;SDS_P2;PMS_P1;PMS_P2;Temp;Humidity;BMP_temperature;BMP_pressure;BME280_temperature;BME280_humidity;BME280_pressure;Samples;Min_cycle;Max_cycle;Signal;HPM_P1;HPM_P2
2022/05/03 00:00:51;;;;;;;17.45;9.43;;;14.80;99.90;;;;;;5032050;28;20116;-44
2022/05/03 00:03:27;;;;;;;15.50;8.90;;;14.70;99.90;;;;;;5035469;28;20029;-45
2022/05/03 00:05:59;;;;;;;17.50;9.48;;;14.60;99.90;;;;;;5033046;28;20038;-44
2022/05/03 00:08:49;;;;;;;15.93;9.80;;;14.20;99.90;;;;;;5014134;28;20101;-44
2022/05/03 00:11:46;;;;;;;16.17;9.55;;;14.20;99.90;;;;;;5033768;28;20034;-45
2022/05/03 00:14:25;;;;;;;17.05;9.80;;;14.20;99.90;;;;;;5031683;28;20478;-44
2022/05/03 00:16:52;;;;;;;16.55;10.18;;;14.10;99.90;;;;;;5031985;28;20029;-44
2022/05/03 00:19:18;;;;;;;21.40;10.57;;;14.00;99.90;;;;;;5014743;28;20037;-45
2022/05/03 00:21:45;;;;;;;15.27;10.00;;;;;;;;;;5031968;28;20111;-44
2022/05/03 00:24:11;;;;;;;14.15;8.50;;;;;;;;;;5032913;28;20512;-44
2022/05/03 00:26:37;;;;;;;15.10;8.45;;;;;;;;;;5063730;28;20037;-44
2022/05/03 00:29:04;;;;;;;17.30;9.68;;;;;;;;;;5053730;28;20122;-44
2022/05/03 00:31:30;;;;;;;16.90;9.75;;;;;;;;;;5056942;28;20025;-44
2022/05/03 00:33:57;;;;;;;13.02;9.00;;;13.60;99.90;;;;;;5057194;28;20490;-44
2022/05/03 00:36:24;;;;;;;16.38;10.00;;;;;;;;;;5054079;28;20032;-45
2022/05/03 00:38:50;;;;;;;14.35;8.15;;;13.80;99.90;;;;;;5042134;28;20469;-44
2022/05/03 00:41:35;;;;;;;14.82;9.23;;;14.00;99.90;;;;;;5052727;28;20039;-44
2022/05/03 00:47:41;;;;;;;15.95;8.25;;;14.20;99.90;;;;;;5008101;28;20076;-44
2022/05/03 00:50:29;;;;;;;13.25;8.10;;;14.40;99.90;;;;;;5008939;28;20030;-46
2022/05/03 00:53:04;;;;;;;11.18;7.47;;;14.40;99.90;;;;;;4970620;28;20094;-44
2022/05/03 00:56:03;;;;;;;12.32;7.25;;;14.50;99.90;;;;;;4971865;28;20035;-44
2022/05/03 00:58:54;;;;;;;11.02;7.50;;;;;;;;;;4971390;28;20109;-44
2022/05/03 01:01:23;;;;;;;13.43;8.35;;;;;;;;;;4969802;28;20121;-44
2022/05/03 01:04:18;;;;;;;15.75;7.90;;;;;;;;;;4971475;28;20113;-44
2022/05/03 01:06:44;;;;;;;10.10;7.68;;;;;;;;;;4913813;29;20117;-44
2022/05/03 01:09:10;;;;;;;14.43;8.63;;;;;;;;;;4912970;29;20115;-44
2022/05/03 01:11:50;;;;;;;16.52;9.93;;;;;;;;;;4913806;29;20032;-44
2022/05/03 01:14:16;;;;;;;17.25;10.68;;;;;;;;;;4914117;29;20040;-44
2022/05/03 01:16:48;;;;;;;89.10;36.92;;;;;;;;;;4913571;29;20408;-45
2022/05/03 01:19:27;;;;;;;51.25;22.40;;;14.40;99.90;;;;;;4897618;29;20432;-45
2022/05/03 01:22:01;;;;;;;94.45;39.50;;;14.40;99.90;;;;;;4869860;29;20056;-44
2022/05/03 01:25:04;;;;;;;61.88;29.98;;;14.40;99.90;;;;;;4930651;29;20043;-44
2022/05/03 01:27:36;;;;;;;26.38;13.45;;;;;;;;;;4934508;29;20044;-44
2022/05/03 01:30:03;;;;;;;11.55;8.38;;;14.30;99.90;;;;;;4962623;28;20034;-45
2022/05/03 01:32:33;;;;;;;10.57;7.97;;;14.30;99.90;;;;;;4974367;28;20038;-44
2022/05/03 01:35:04;;;;;;;11.07;7.45;;;14.30;99.90;;;;;;4976014;28;20031;-45
2022/05/03 01:37:56;;;;;;;15.23;6.88;;;14.10;99.90;;;;;;4960187;28;20387;-44
2022/05/03 01:40:36;;;;;;;10.73;6.93;;;14.10;99.90;;;;;;4971379;28;20023;-44
2022/05/03 01:43:15;;;;;;;10.93;7.15;;;14.00;99.90;;;;;;4988077;28;20586;-44
2022/05/03 01:46:10;;;;;;;9.70;7.03;;;14.00;99.90;;;;;;5010512;28;20026;-44
2022/05/03 01:52:07;;;;;;;18.05;12.07;;;14.20;99.90;;;;;;5022235;28;20120;-45
2022/05/03 01:54:35;;;;;;;22.45;14.75;;;14.10;99.90;;;;;;5014100;28;20050;-44
2022/05/03 01:57:22;;;;;;;10.57;7.38;;;14.30;99.90;;;;;;5013289;28;20406;-44
2022/05/03 02:00:07;;;;;;;16.20;7.65;;;14.30;99.90;;;;;;5024577;28;20045;-45
2022/05/03 02:02:38;;;;;;;11.23;7.35;;;14.20;99.90;;;;;;4974917;28;20042;-44
2022/05/03 02:05:05;;;;;;;12.77;8.02;;;14.10;99.90;;;;;;5027341;28;20728;-44
2022/05/03 02:07:42;;;;;;;11.38;6.68;;;14.10;99.90;;;;;;5063091;28;20033;-44
2022/05/03 02:10:20;;;;;;;11.57;6.97;;;14.10;99.90;;;;;;5059844;28;20028;-44
2022/05/03 02:12:53;;;;;;;11.38;6.88;;;14.10;99.90;;;;;;5071775;28;20039;-44
2022/05/03 02:15:39;;;;;;;10.00;7.13;;;14.10;99.90;;;;;;5061748;28;20095;-45
2022/05/03 02:18:37;;;;;;;9.38;6.45;;;14.10;99.90;;;;;;5056005;28;20017;-44
2022/05/03 02:21:37;;;;;;;9.05;5.93;;;14.20;99.90;;;;;;5057954;28;20457;-44
2022/05/03 02:24:09;;;;;;;10.27;6.75;;;14.20;99.90;;;;;;5056254;28;20036;-44
2022/05/03 02:27:10;;;;;;;9.88;6.68;;;14.30;99.90;;;;;;5058474;28;20021;-44
2022/05/03 02:29:44;;;;;;;10.15;7.53;;;14.30;99.90;;;;;;5036303;28;20045;-44
2022/05/03 02:32:12;;;;;;;10.80;7.53;;;14.30;99.90;;;;;;5057677;28;20029;-44
2022/05/03 02:34:53;;;;;;;12.20;6.95;;;14.30;99.90;;;;;;5059153;28;20036;-44
2022/05/03 02:37:18;;;;;;;10.73;7.18;;;14.30;99.90;;;;;;5056980;28;20025;-45
2022/05/03 02:40:00;;;;;;;15.63;8.25;;;14.30;99.90;;;;;;5057806;28;20089;-44
2022/05/03 02:42:27;;;;;;;11.98;7.65;;;14.30;99.90;;;;;;5047294;28;20024;-44
2022/05/03 02:44:56;;;;;;;20.35;8.73;;;14.30;99.90;;;;;;5037916;28;20128;-44
2022/05/03 02:47:31;;;;;;;15.40;9.07;;;14.20;99.90;;;;;;5058785;28;20083;-44
2022/05/03 02:50:12;;;;;;;13.00;8.63;;;14.30;99.90;;;;;;5055381;28;20488;-44
2022/05/03 02:52:46;;;;;;;17.05;9.10;;;14.30;99.90;;;;;;5058087;28;20108;-44
2022/05/03 02:55:45;;;;;;;13.63;8.45;;;14.20;99.90;;;;;;5057358;28;20025;-44
2022/05/03 02:58:30;;;;;;;12.23;8.35;;;14.20;99.90;;;;;;5054793;28;20036;-44
2022/05/03 03:04:04;;;;;;;9.57;7.15;;;14.00;99.90;;;;;;5057571;28;20038;-44
2022/05/03 03:06:36;;;;;;;11.43;7.13;;;14.00;99.90;;;;;;5050422;28;20017;-44
2022/05/03 03:09:03;;;;;;;10.15;7.75;;;13.90;99.90;;;;;;5053338;28;20075;-45
2022/05/03 03:11:35;;;;;;;10.57;6.60;;;13.50;99.90;;;;;;5058874;28;20465;-44
2022/05/03 03:14:19;;;;;;;;;;;13.30;99.90;;;;;;5055655;28;20052;-44
2022/05/03 03:16:57;;;;;;;8.20;6.18;;;;;;;;;;5053976;28;20110;-44
2022/05/03 03:19:27;;;;;;;9.48;5.97;;;;;;;;;;5059219;28;20025;-44
2022/05/03 03:21:55;;;;;;;7.07;5.03;;;;;;;;;;5054298;28;20028;-44
2022/05/03 03:24:22;;;;;;;8.50;5.85;;;;;;;;;;5056436;28;20469;-45
2022/05/03 03:26:48;;;;;;;7.57;5.57;;;;;;;;;;5055364;28;20365;-44
2022/05/03 03:29:14;;;;;;;8.85;5.93;;;;;;;;;;5053783;28;20029;-45
2022/05/03 03:31:42;;;;;;;8.30;5.75;;;13.30;99.90;;;;;;5057880;28;20099;-44
2022/05/03 03:34:11;;;;;;;11.30;5.95;;;13.20;99.90;;;;;;5010946;28;20144;-45
2022/05/03 03:36:40;;;;;;;8.75;5.43;;;13.20;99.90;;;;;;5010912;28;20383;-44
2022/05/03 03:39:05;;;;;;;7.28;5.45;;;12.90;99.90;;;;;;5010903;28;20064;-44
2022/05/03 03:41:31;;;;;;;9.02;5.88;;;12.80;99.90;;;;;;5011471;28;20514;-45
2022/05/03 03:43:57;;;;;;;8.43;5.95;;;12.50;99.90;;;;;;5026967;28;20084;-45
2022/05/03 03:46:23;;;;;;;8.07;5.53;;;;;;;;;;4994020;28;20490;-45
2022/05/03 03:48:48;;;;;;;8.00;5.22;;;12.80;99.90;;;;;;5010749;28;20074;-43
2022/05/03 03:51:15;;;;;;;6.28;4.88;;;12.50;99.90;;;;;;5010761;28;20072;-45
2022/05/03 03:53:42;;;;;;;8.52;5.97;;;12.20;99.90;;;;;;5010552;28;20050;-44
2022/05/03 03:56:09;;;;;;;8.27;5.53;;;12.20;99.90;;;;;;5010463;28;20034;-44
2022/05/03 03:58:35;;;;;;;6.68;5.20;;;12.30;99.90;;;;;;5010599;28;20030;-44
2022/05/03 04:01:01;;;;;;;6.80;5.25;;;12.50;99.90;;;;;;5010414;28;20057;-44
2022/05/03 04:03:27;;;;;;;10.35;6.28;;;12.80;99.90;;;;;;5011167;28;20172;-45
2022/05/03 04:05:53;;;;;;;9.57;5.70;;;13.10;99.90;;;;;;5049123;28;20036;-44
2022/05/03 04:08:19;;;;;;;10.00;5.82;;;13.30;99.90;;;;;;5053637;28;20037;-44
2022/05/03 04:10:45;;;;;;;12.32;6.45;;;13.40;99.90;;;;;;5055268;28;20029;-44
2022/05/03 04:13:14;;;;;;;10.50;5.63;;;13.50;99.90;;;;;;5053452;28;20461;-44
2022/05/03 04:15:40;;;;;;;9.88;5.35;;;13.60;99.90;;;;;;5055081;28;20044;-44
2022/05/03 04:18:07;;;;;;;8.45;5.00;;;13.70;99.90;;;;;;5054609;28;20488;-45
2022/05/03 04:20:34;;;;;;;15.68;6.10;;;13.70;99.90;;;;;;5051540;28;20392;-45
2022/05/03 04:23:00;;;;;;;10.30;5.72;;;13.80;99.90;;;;;;5052985;28;20468;-45
2022/05/03 04:25:25;;;;;;;10.73;5.72;;;13.80;99.90;;;;;;5054264;28;20024;-45
2022/05/03 04:27:51;;;;;;;6.50;5.00;;;13.80;99.90;;;;;;5053004;28;20033;-47
2022/05/03 04:30:17;;;;;;;12.15;5.55;;;13.90;99.90;;;;;;5062531;28;20051;-46
2022/05/03 04:32:43;;;;;;;8.20;4.90;;;14.00;99.90;;;;;;5032522;28;20036;-45
2022/05/03 04:35:10;;;;;;;17.63;7.32;;;;;;;;;;5053832;28;20033;-45
2022/05/03 04:37:35;;;;;;;11.70;6.45;;;14.10;99.90;;;;;;5052580;28;20033;-45
2022/05/03 04:40:01;;;;;;;10.25;6.00;;;14.20;99.90;;;;;;5020669;28;20035;-45
2022/05/03 04:42:27;;;;;;;10.20;6.63;;;14.30;99.90;;;;;;5035110;28;20193;-45
2022/05/03 04:44:53;;;;;;;10.95;6.65;;;14.30;99.90;;;;;;5052809;28;20035;-45
2022/05/03 04:47:19;;;;;;;14.27;8.05;;;;;;;;;;5035818;28;20037;-45
2022/05/03 04:49:47;;;;;;;21.75;8.00;;;;;;;;;;5043845;28;20090;-44
2022/05/03 04:52:13;;;;;;;14.45;7.45;;;;;;;;;;5057187;28;20113;-45
2022/05/03 04:54:39;;;;;;;15.13;6.93;;;14.70;99.90;;;;;;5054629;28;20044;-45
2022/05/03 04:57:06;;;;;;;17.58;6.22;;;14.60;99.90;;;;;;5033477;28;20043;-45
2022/05/03 04:59:33;;;;;;;14.05;6.85;;;14.60;99.90;;;;;;5052639;28;20029;-45
2022/05/03 05:01:59;;;;;;;15.27;5.55;;;14.70;99.90;;;;;;5053767;28;20076;-45
2022/05/03 05:04:24;;;;;;;9.20;5.05;;;14.80;99.90;;;;;;5056059;28;20033;-46
2022/05/03 05:06:50;;;;;;;10.10;5.53;;;14.80;99.90;;;;;;5057962;28;20060;-46
2022/05/03 05:09:16;;;;;;;10.10;5.45;;;14.90;99.90;;;;;;5053350;28;20036;-46
2022/05/03 05:11:42;;;;;;;9.75;5.47;;;;;;;;;;5052738;28;20048;-45
2022/05/03 05:14:08;;;;;;;11.95;6.20;;;15.20;99.90;;;;;;5055362;28;20048;-45
2022/05/03 05:16:34;;;;;;;18.13;6.80;;;15.30;99.90;;;;;;5033094;28;20254;-45
2022/05/03 05:18:59;;;;;;;10.25;5.82;;;15.40;99.90;;;;;;5052422;28;20029;-45
2022/05/03 05:21:25;;;;;;;13.25;5.78;;;15.30;99.90;;;;;;5058182;28;20372;-46
2022/05/03 05:23:52;;;;;;;8.65;6.22;;;15.20;99.90;;;;;;5058795;28;20142;-46
2022/05/03 05:26:18;;;;;;;8.63;5.35;;;15.20;99.90;;;;;;5058707;28;20094;-45
2022/05/03 05:28:44;;;;;;;12.63;6.20;;;15.20;99.90;;;;;;5060123;28;20047;-45
2022/05/03 05:31:10;;;;;;;13.52;5.35;;;15.40;99.90;;;;;;5056621;28;20380;-46
2022/05/03 05:33:35;;;;;;;7.25;5.28;;;15.50;99.90;;;;;;5059510;28;20028;-45
2022/05/03 05:36:02;;;;;;;9.50;5.20;;;;;;;;;;5055551;28;20037;-45
2022/05/03 05:38:28;;;;;;;7.75;5.55;;;15.70;99.90;;;;;;5058136;28;20036;-45
2022/05/03 05:40:55;;;;;;;6.88;5.53;;;15.80;99.90;;;;;;5037356;28;20090;-46
2022/05/03 05:43:20;;;;;;;9.80;6.38;;;15.80;99.90;;;;;;5057451;28;20112;-45
2022/05/03 05:45:46;;;;;;;11.80;6.78;;;15.80;99.90;;;;;;5059325;28;20513;-45
2022/05/03 05:48:15;;;;;;;7.18;6.28;;;15.70;99.90;;;;;;5059841;28;20037;-45
2022/05/03 05:50:41;;;;;;;9.25;6.60;;;15.90;99.90;;;;;;5056741;28;20031;-46
2022/05/03 05:55:52;;;;;;;14.30;6.32;;;15.60;99.90;;;;;;5056130;28;20423;-45
2022/05/03 05:58:17;;;;;;;6.20;5.03;;;15.70;99.90;;;;;;5054937;28;20025;-45
2022/05/03 06:00:43;;;;;;;8.82;4.93;;;15.80;99.90;;;;;;5036390;28;20035;-45
2022/05/03 06:03:09;;;;;;;8.32;5.05;;;15.90;99.90;;;;;;5036735;28;20041;-45
2022/05/03 06:05:35;;;;;;;11.60;4.80;;;16.00;99.90;;;;;;5058257;28;20025;-45
2022/05/03 06:08:01;;;;;;;8.52;5.03;;;16.20;99.90;;;;;;5059509;28;20396;-45
2022/05/03 06:10:28;;;;;;;6.47;5.10;;;16.30;99.90;;;;;;5059949;28;20120;-45
2022/05/03 06:12:54;;;;;;;11.23;5.57;;;16.40;99.90;;;;;;5055386;28;20116;-45
2022/05/03 06:15:20;;;;;;;10.85;5.95;;;16.20;99.90;;;;;;5060155;28;20108;-44
2022/05/03 06:17:45;;;;;;;7.55;4.82;;;16.50;99.90;;;;;;5065481;28;20033;-46
2022/05/03 06:20:11;;;;;;;9.13;5.07;;;16.80;99.90;;;;;;5058468;28;20035;-45
2022/05/03 06:22:41;;;;;;;7.75;4.88;;;17.10;99.90;;;;;;5054543;28;20025;-45
2022/05/03 06:25:08;;;;;;;11.45;5.03;;;17.20;99.90;;;;;;5059853;28;20033;-46
2022/05/03 06:27:38;;;;;;;7.03;5.00;;;17.40;99.90;;;;;;5058516;28;20039;-45
2022/05/03 06:30:05;;;;;;;7.38;5.20;;;17.60;99.90;;;;;;5056772;28;20073;-46
2022/05/03 06:32:31;;;;;;;8.02;5.47;;;;;;;;;;5026423;28;20028;-45
2022/05/03 06:34:57;;;;;;;7.57;5.15;;;18.10;99.90;;;;;;5054494;28;20044;-45
2022/05/03 06:37:23;;;;;;;10.40;4.65;;;;;;;;;;5053224;28;20445;-45
2022/05/03 06:39:48;;;;;;;6.35;5.15;;;18.40;99.90;;;;;;5055137;28;20017;-46
2022/05/03 06:42:16;;;;;;;10.55;5.68;;;18.50;99.90;;;;;;5054637;28;20508;-46
2022/05/03 06:44:42;;;;;;;8.65;5.22;;;18.40;99.90;;;;;;5054140;28;20365;-46
2022/05/03 06:47:08;;;;;;;11.77;6.63;;;18.40;99.90;;;;;;5053641;28;20032;-46
2022/05/03 06:49:34;;;;;;;7.78;4.82;;;18.60;99.90;;;;;;5053027;28;20033;-43
2022/05/03 06:52:00;;;;;;;7.13;5.00;;;18.40;99.90;;;;;;5066299;28;20473;-43
2022/05/03 06:54:26;;;;;;;7.13;4.57;;;18.50;99.90;;;;;;5048214;28;20056;-44
2022/05/03 06:56:52;;;;;;;8.25;4.20;;;18.60;99.90;;;;;;5049140;28;20028;-43
2022/05/03 06:59:18;;;;;;;9.93;4.38;;;18.70;99.90;;;;;;5029229;28;20045;-44
2022/05/03 07:01:43;;;;;;;6.95;4.32;;;18.80;99.90;;;;;;5047276;28;20040;-43
2022/05/03 07:04:09;;;;;;;8.75;3.72;;;;;;;;;;5052388;28;20029;-43
2022/05/03 07:06:36;;;;;;;7.20;4.13;;;;;;;;;;5056203;28;20237;-45
2022/05/03 07:09:03;;;;;;;5.60;3.60;;;19.70;99.90;;;;;;5046475;28;20124;-44
2022/05/03 07:11:29;;;;;;;8.98;3.63;;;19.70;99.90;;;;;;5050370;28;20186;-43
2022/05/03 07:13:54;;;;;;;5.72;3.30;;;19.60;99.90;;;;;;5055452;28;20112;-43
2022/05/03 07:16:20;;;;;;;5.00;3.03;;;19.70;99.90;;;;;;5051781;28;20021;-43
2022/05/03 07:24:35;;;;;;;10.02;4.13;;;20.20;99.30;;;;;;4986868;28;20049;-44
2022/05/03 07:27:01;;;;;;;7.15;4.03;;;20.40;99.20;;;;;;4992501;28;20042;-41
2022/05/03 07:29:27;;;;;;;7.15;4.32;;;20.60;99.90;;;;;;4990875;28;20478;-45
2022/05/03 07:31:53;;;;;;;6.80;4.45;;;20.60;99.80;;;;;;4989525;28;20034;-45
2022/05/03 07:34:18;;;;;;;7.68;4.18;;;20.50;99.10;;;;;;4987146;28;20133;-46
2022/05/03 07:36:44;;;;;;;8.82;4.85;;;20.50;98.50;;;;;;4983837;28;20061;-45
2022/05/03 07:39:10;;;;;;;5.40;4.10;;;20.60;98.80;;;;;;4989118;28;20394;-45
2022/05/03 07:41:37;;;;;;;6.97;4.20;;;20.50;98.70;;;;;;4991428;28;20110;-45
2022/05/03 07:44:02;;;;;;;10.25;4.35;;;20.60;98.40;;;;;;4954337;28;20390;-45
2022/05/03 07:46:28;;;;;;;7.95;3.53;;;20.80;98.70;;;;;;4970603;28;20030;-45
2022/05/03 07:48:56;;;;;;;5.80;3.30;;;20.40;98.20;;;;;;4983969;28;20046;-47
2022/05/03 07:51:21;;;;;;;5.22;3.72;;;20.50;99.10;;;;;;4989434;28;20690;-46
2022/05/03 07:53:48;;;;;;;5.25;3.45;;;20.80;98.90;;;;;;5052918;28;20102;-45
2022/05/03 07:56:13;;;;;;;6.65;4.03;;;20.90;98.40;;;;;;5033245;28;20144;-46
2022/05/03 07:58:39;;;;;;;4.07;3.10;;;;;;;;;;5051019;28;20141;-46
2022/05/03 08:01:05;;;;;;;5.88;3.30;;;21.40;98.10;;;;;;5045606;28;20037;-45
2022/05/03 08:03:31;;;;;;;4.05;3.20;;;21.40;96.90;;;;;;5051513;28;20029;-46
2022/05/03 08:05:57;;;;;;;5.22;2.70;;;21.10;96.30;;;;;;5065378;28;20044;-46
2022/05/03 08:08:23;;;;;;;6.13;2.88;;;21.30;96.40;;;;;;5052926;28;20481;-46
2022/05/03 08:10:49;;;;;;;3.92;2.60;;;21.10;96.50;;;;;;5051160;28;20041;-45
2022/05/03 08:13:15;;;;;;;4.95;2.63;;;21.20;97.70;;;;;;5033082;28;20033;-45
2022/05/03 08:15:41;;;;;;;4.40;2.65;;;21.20;97.60;;;;;;5048685;28;20036;-45
2022/05/03 08:18:07;;;;;;;4.40;2.70;;;21.30;97.70;;;;;;5047258;28;20025;-46
2022/05/03 08:20:33;;;;;;;6.00;3.00;;;21.30;96.30;;;;;;5049742;28;20115;-45
2022/05/03 08:22:59;;;;;;;4.43;2.90;;;21.30;97.00;;;;;;5050553;28;20020;-46
2022/05/03 08:25:26;;;;;;;4.45;2.55;;;;;;;;;;5050132;28;20049;-46
2022/05/03 08:27:52;;;;;;;4.32;2.60;;;21.90;97.30;;;;;;5040338;28;20048;-46
2022/05/03 08:30:18;;;;;;;4.78;2.08;;;21.70;96.20;;;;;;5052045;28;20086;-46
2022/05/03 08:32:43;;;;;;;4.20;2.40;;;21.80;96.80;;;;;;5059490;28;20048;-47
2022/05/03 08:35:09;;;;;;;4.43;2.70;;;21.90;96.10;;;;;;5044914;28;20120;-46
2022/05/03 08:43:06;;;;;;;6.45;2.60;;;22.20;96.20;;;;;;5052706;28;20063;-46
2022/05/03 08:45:32;;;;;;;6.78;2.45;;;22.40;95.10;;;;;;5050550;28;20036;-47
2022/05/03 08:48:01;;;;;;;5.82;2.40;;;22.30;95.30;;;;;;5048671;28;20052;-46
2022/05/03 08:50:29;;;;;;;5.25;2.53;;;22.90;95.00;;;;;;5052442;28;20037;-47
2022/05/03 08:53:01;;;;;;;7.32;2.35;;;22.90;98.90;;;;;;5050672;28;20067;-47
2022/05/03 08:55:28;;;;;;;4.22;2.35;;;23.00;99.90;;;;;;5055208;28;20028;-45
2022/05/03 08:57:54;;;;;;;4.32;2.63;;;23.30;93.80;;;;;;5052146;28;20092;-47
2022/05/03 09:00:22;;;;;;;4.35;2.35;;;23.70;94.70;;;;;;5048881;28;20025;-47
2022/05/03 09:02:50;;;;;;;3.60;2.42;;;;;;;;;;5049250;28;20043;-46
2022/05/03 09:05:16;;;;;;;3.60;2.47;;;24.00;99.90;;;;;;5051183;28;20113;-45
2022/05/03 09:07:56;;;;;;;4.72;3.38;;;23.60;93.30;;;;;;5042367;28;20055;-46
2022/05/03 09:10:29;;;;;;;3.65;2.42;;;23.80;99.90;;;;;;5057119;28;20550;-44
2022/05/03 09:13:13;;;;;;;4.88;2.00;;;23.60;99.90;;;;;;5052507;28;20056;-45
2022/05/03 09:15:39;;;;;;;4.47;2.42;;;;;;;;;;5047738;28;20370;-44
2022/05/03 09:18:05;;;;;;;4.40;2.28;;;23.60;91.70;;;;;;5052740;28;20174;-43
2022/05/03 09:26:15;;;;;;;3.70;2.17;;;24.60;92.20;;;;;;5054471;28;20048;-45
2022/05/03 09:28:57;;;;;;;8.15;2.50;;;23.90;91.60;;;;;;5042466;28;20048;-46
2022/05/03 09:31:30;;;;;;;4.07;2.33;;;;;;;;;;5014115;28;20056;-47
2022/05/03 09:33:57;;;;;;;4.80;2.30;;;24.50;98.80;;;;;;5054706;28;20095;-45
2022/05/03 09:36:24;;;;;;;6.75;2.30;;;24.80;91.40;;;;;;5057887;28;20037;-47
2022/05/03 09:38:53;;;;;;;4.65;2.15;;;24.60;91.30;;;;;;5033902;28;20041;-45
2022/05/03 09:41:19;;;;;;;6.95;2.45;;;24.20;91.70;;;;;;5051889;28;20037;-44
2022/05/03 09:44:05;;;;;;;4.10;2.75;;;23.50;91.80;;;;;;5051306;28;20078;-45
2022/05/03 09:46:51;;;;;;;6.05;2.35;;;24.30;91.50;;;;;;5053270;28;20028;-43
2022/05/03 09:49:34;;;;;;;3.60;2.50;;;24.50;91.50;;;;;;5056403;28;20053;-45
2022/05/03 09:52:00;;;;;;;4.15;2.17;;;;;;;;;;5052523;28;20032;-45
2022/05/03 09:54:28;;;;;;;5.03;2.47;;;;;;;;;;5047634;28;21568;-47
2022/05/03 09:56:54;;;;;;;4.32;2.03;;;25.30;99.90;;;;;;5048928;28;20389;-47
2022/05/03 09:59:20;;;;;;;4.25;2.33;;;25.20;88.80;;;;;;5051471;28;20044;-46
2022/05/03 10:01:47;;;;;;;3.70;2.40;;;25.60;90.10;;;;;;5052791;28;20033;-47
2022/05/03 10:04:13;;;;;;;8.60;2.50;;;25.10;90.40;;;;;;5052124;28;20032;-47
2022/05/03 10:06:39;;;;;;;4.47;2.58;;;25.40;90.00;;;;;;5050602;28;20044;-47
2022/05/03 10:09:07;;;;;;;5.10;2.40;;;25.40;89.20;;;;;;5053245;28;20033;-44
2022/05/03 10:11:36;;;;;;;5.25;2.30;;;25.10;88.90;;;;;;5051403;28;20179;-47
2022/05/03 10:14:02;;;;;;;2.58;1.95;;;25.10;89.10;;;;;;5049477;28;20087;-47
2022/05/03 10:22:03;;;;;;;4.13;2.45;;;25.90;99.90;;;;;;5054332;28;20052;-43
2022/05/03 10:24:31;;;;;;;4.72;2.95;;;25.90;89.90;;;;;;5055924;28;20492;-44
2022/05/03 10:27:01;;;;;;;4.57;2.30;;;25.90;87.80;;;;;;5050243;28;20044;-46
2022/05/03 10:29:36;;;;;;;4.57;2.35;;;26.10;88.90;;;;;;5048931;28;20408;-46
2022/05/03 10:32:14;;;;;;;4.22;2.53;;;26.60;88.60;;;;;;5052282;28;20496;-49
2022/05/03 10:34:40;;;;;;;3.33;2.00;;;26.70;86.10;;;;;;5051228;28;20033;-48
2022/05/03 10:37:29;;;;;;;5.35;2.42;;;27.00;86.30;;;;;;5063618;28;20045;-46
2022/05/03 10:39:58;;;;;;;4.93;2.13;;;26.50;84.60;;;;;;5026125;28;20057;-48
2022/05/03 10:42:29;;;;;;;4.18;2.30;;;26.50;84.20;;;;;;5028454;28;20125;-47
2022/05/03 10:45:10;;;;;;;6.25;2.15;;;27.00;86.80;;;;;;5030220;28;20389;-49
2022/05/03 10:47:48;;;;;;;4.63;2.10;;;27.50;85.90;;;;;;5032249;28;20083;-47
2022/05/03 10:50:17;;;;;;;4.00;1.83;;;;;;;;;;5032310;28;20034;-46
2022/05/03 10:52:45;;;;;;;4.45;2.13;;;;;;;;;;5029499;28;20049;-50
2022/05/03 10:55:11;;;;;;;5.38;2.17;;;26.40;83.40;;;;;;5035051;28;20029;-45
2022/05/03 10:58:14;;;;;;;3.03;2.20;;;26.00;82.80;;;;;;5024295;28;20060;-49
2022/05/03 11:01:09;;;;;;;5.82;2.28;;;26.60;81.60;;;;;;5031742;28;20107;-48
2022/05/03 11:03:58;;;;;;;5.13;2.63;;;27.10;81.60;;;;;;4995759;28;20481;-44
2022/05/03 11:06:25;;;;;;;4.13;2.35;;;25.70;81.40;;;;;;5030654;28;20029;-46
2022/05/03 11:11:47;;;;;;;3.35;2.30;;;25.70;82.00;;;;;;5030908;28;20484;-48
2022/05/03 11:14:15;;;;;;;5.90;2.20;;;25.10;81.90;;;;;;5031072;28;20037;-47
2022/05/03 11:16:42;;;;;;;5.72;2.80;;;25.50;80.90;;;;;;5041505;28;20102;-48
2022/05/03 11:19:26;;;;;;;3.92;2.60;;;24.70;81.80;;;;;;5054523;28;20546;-46
2022/05/03 11:21:52;;;;;;;3.83;2.35;;;24.30;82.20;;;;;;5030814;28;20393;-45
2022/05/03 11:24:24;;;;;;;4.22;2.25;;;23.50;85.70;;;;;;5057210;28;20024;-44
2022/05/03 11:26:53;;;;;;;5.30;2.70;;;23.00;86.60;;;;;;5046863;28;20029;-47
2022/05/03 11:29:19;;;;;;;7.65;2.90;;;23.80;88.30;;;;;;5056349;28;20468;-45
2022/05/03 11:31:52;;;;;;;4.75;2.65;;;24.00;85.60;;;;;;5057294;28;20097;-46
2022/05/03 11:34:18;;;;;;;7.82;2.70;;;23.90;88.00;;;;;;5052986;28;20032;-43
2022/05/03 11:36:47;;;;;;;3.50;2.30;;;23.80;85.00;;;;;;5054113;28;20028;-43
2022/05/03 11:39:14;;;;;;;3.47;2.25;;;23.20;86.90;;;;;;5045257;28;20079;-46
2022/05/03 11:41:40;;;;;;;5.65;2.90;;;23.50;87.20;;;;;;5054870;28;20185;-50
2022/05/03 11:44:06;;;;;;;3.88;2.67;;;23.40;87.30;;;;;;5018064;28;20040;-45
2022/05/03 11:46:31;;;;;;;4.50;2.70;;;23.30;86.60;;;;;;5052237;28;20055;-44
2022/05/03 11:49:05;;;;;;;4.90;2.88;;;23.10;87.60;;;;;;5050259;28;20047;-43
2022/05/03 11:57:11;;;;;;;5.63;2.80;;;22.00;91.30;;;;;;5050292;28;20575;-46
2022/05/03 11:59:39;;;;;;;5.55;2.90;;;21.90;91.50;;;;;;5051104;28;20020;-50
2022/05/03 12:02:19;;;;;;;5.25;2.65;;;21.80;90.80;;;;;;5052135;28;20476;-48
2022/05/03 12:05:19;;;;;;;4.85;2.97;;;21.60;91.20;;;;;;5051100;28;20037;-46
2022/05/03 12:07:45;;;;;;;5.82;2.88;;;21.60;91.50;;;;;;5049328;28;20056;-46
2022/05/03 12:10:19;;;;;;;3.15;2.13;;;21.80;90.40;;;;;;5047449;28;20024;-50
2022/05/03 12:13:06;;;;;;;6.10;2.45;;;21.30;90.20;;;;;;5053690;28;20033;-47
2022/05/03 12:15:36;;;;;;;5.13;2.60;;;21.40;90.60;;;;;;5050941;28;20090;-44
2022/05/03 12:18:23;;;;;;;5.00;3.00;;;21.60;90.20;;;;;;5050391;28;20116;-42
2022/05/03 12:21:03;;;;;;;4.55;2.50;;;21.40;90.60;;;;;;5057291;28;20045;-46
2022/05/03 12:23:35;;;;;;;5.18;3.30;;;21.20;90.20;;;;;;5050490;28;20029;-45
2022/05/03 12:26:17;;;;;;;5.45;2.75;;;21.20;90.30;;;;;;5048494;28;20112;-46
2022/05/03 12:28:47;;;;;;;;;;;22.00;91.10;;;;;;5051497;28;20041;-43
2022/05/03 12:31:16;;;;;;;6.80;2.90;;;22.10;90.70;;;;;;5055884;28;19962;-45
2022/05/03 12:33:46;;;;;;;9.27;2.58;;;22.60;90.10;;;;;;5052506;28;20489;-45
2022/05/03 12:36:36;;;;;;;7.50;3.00;;;22.40;88.50;;;;;;5051730;28;20425;-45
2022/05/03 12:39:22;;;;;;;9.20;3.05;;;22.00;90.00;;;;;;5029580;28;20078;-43
2022/05/03 12:41:57;;;;;;;7.22;2.75;;;22.60;90.00;;;;;;5054944;28;20342;-42
2022/05/03 12:44:24;;;;;;;3.17;2.30;;;23.20;90.20;;;;;;5052530;28;20498;-45
2022/05/03 12:46:51;;;;;;;4.50;1.85;;;22.90;86.90;;;;;;5050409;28;20172;-43
2022/05/03 12:49:18;;;;;;;2.67;2.13;;;22.80;85.60;;;;;;5047238;28;20052;-43
2022/05/03 12:51:48;;;;;;;3.30;2.17;;;23.20;87.30;;;;;;5054649;28;20168;-43
2022/05/03 12:54:15;;;;;;;5.05;2.08;;;22.80;86.70;;;;;;5053978;28;20790;-45
2022/05/03 12:59:28;;;;;;;5.60;2.38;;;22.50;85.80;;;;;;5050978;28;20097;-45
2022/05/03 13:01:55;;;;;;;4.47;2.40;;;23.00;86.80;;;;;;5050796;28;20120;-43
2022/05/03 13:04:21;;;;;;;3.50;2.33;;;23.60;87.70;;;;;;5047909;28;20043;-47
2022/05/03 13:06:48;;;;;;;4.63;2.42;;;;;;;;;;5046886;28;20079;-47
2022/05/03 13:09:14;;;;;;;4.28;2.40;;;24.60;85.30;;;;;;5046522;28;20033;-43
2022/05/03 13:11:41;;;;;;;3.17;2.03;;;24.40;85.30;;;;;;5051615;28;20600;-42
2022/05/03 13:14:08;;;;;;;3.47;2.83;;;24.10;85.60;;;;;;5052111;28;20045;-44
2022/05/03 13:16:33;;;;;;;4.30;2.70;;;24.60;85.60;;;;;;5050705;28;20035;-47
2022/05/03 13:19:00;;;;;;;3.60;2.65;;;;;;;;;;5048539;28;20034;-46
2022/05/03 13:21:26;;;;;;;5.10;2.65;;;25.10;90.20;;;;;;5053346;28;20029;-46
2022/05/03 13:23:53;;;;;;;3.80;2.55;;;24.70;90.00;;;;;;5052948;28;20056;-45
2022/05/03 13:26:18;;;;;;;5.38;2.47;;;24.90;91.20;;;;;;5033057;28;20054;-46
2022/05/03 13:28:45;;;;;;;4.45;2.13;;;;;;;;;;5024721;28;20520;-48
2022/05/03 13:31:13;;;;;;;6.45;2.50;;;24.80;92.30;;;;;;5046145;28;20037;-48
2022/05/03 13:33:40;;;;;;;4.75;2.15;;;24.60;83.80;;;;;;5049737;28;20029;-48
2022/05/03 13:41:35;;;;;;;4.97;2.42;;;23.40;83.90;;;;;;5055447;28;20086;-46
2022/05/03 13:44:02;;;;;;;6.60;3.92;;;23.00;84.70;;;;;;5057196;28;20033;-46
2022/05/03 13:46:28;;;;;;;5.30;3.05;;;23.10;87.00;;;;;;5054976;28;20029;-46
2022/05/03 13:48:54;;;;;;;4.65;2.78;;;23.30;85.30;;;;;;5047933;28;20090;-46
2022/05/03 13:51:20;;;;;;;4.35;2.55;;;23.10;85.50;;;;;;5055256;28;20108;-47
2022/05/03 13:53:46;;;;;;;4.32;2.20;;;22.80;84.40;;;;;;5058425;28;20063;-49
2022/05/03 13:56:15;;;;;;;6.43;3.65;;;23.10;85.80;;;;;;5056786;28;20029;-48
2022/05/03 13:58:41;;;;;;;6.65;4.10;;;22.90;87.30;;;;;;5055675;28;20319;-49
2022/05/03 14:01:07;;;;;;;4.50;2.85;;;22.80;88.10;;;;;;5048928;28;20040;-49
2022/05/03 14:03:33;;;;;;;5.30;3.80;;;22.90;87.90;;;;;;5054843;28;20036;-45
2022/05/03 14:05:58;;;;;;;6.53;4.32;;;22.90;87.30;;;;;;5055813;28;20048;-47